Time;durP1;ratioP1;P1;durP2;ratioP2;P2;SDS_P1;SDS_P2;PMS_P1;PMS_P2;Temp;Humidity;BMP_temperature;BMP_pressure;BME280_temperature;BME280_humidity;BME280_pressure;Samples;Min_cycle;Max_cycle;Signal;HPM_P1;HPM_P2
2022/02/26 00:01:26;;;;;;;5.72;2.35;;;18.20;43.80;;;;;;5097006;28;20028;-58
2022/02/26 00:03:55;;;;;;;3.13;1.95;;;18.20;43.80;;;;;;5096972;28;20023;-57
2022/02/26 00:06:21;;;;;;;3.88;2.15;;;18.30;43.90;;;;;;5112575;28;20027;-57
2022/02/26 00:08:47;;;;;;;3.17;2.28;;;18.30;43.90;;;;;;5097256;28;20474;-58
2022/02/26 00:11:13;;;;;;;4.47;2.22;;;18.20;43.80;;;;;;5097263;28;20020;-58
2022/02/26 00:13:40;;;;;;;4.55;2.22;;;18.20;43.90;;;;;;5096233;28;20099;-57
2022/02/26 00:16:06;;;;;;;5.53;2.28;;;18.20;43.90;;;;;;5096446;28;20020;-55
2022/02/26 00:18:33;;;;;;;5.35;2.40;;;18.20;43.90;;;;;;5096058;28;20024;-56
2022/02/26 00:20:59;;;;;;;5.55;2.15;;;18.20;43.90;;;;;;5096565;28;20012;-55
2022/02/26 00:23:25;;;;;;;3.33;2.10;;;18.20;43.90;;;;;;5096486;28;20061;-56
2022/02/26 00:25:51;;;;;;;5.07;2.10;;;18.20;43.90;;;;;;5096490;28;20087;-56
2022/02/26 00:28:16;;;;;;;4.22;2.40;;;18.20;43.90;;;;;;5096805;28;20014;-55
2022/02/26 00:30:42;;;;;;;4.43;2.20;;;18.20;43.90;;;;;;5096524;28;20023;-55
2022/02/26 00:33:08;;;;;;;3.15;2.20;;;18.20;43.90;;;;;;5094868;28;20421;-56
2022/02/26 00:35:34;;;;;;;4.60;1.80;;;18.20;43.90;;;;;;5096664;28;20482;-56
2022/02/26 00:38:00;;;;;;;2.97;1.77;;;18.20;43.90;;;;;;5096911;28;20440;-56
2022/02/26 00:40:28;;;;;;;5.72;2.60;;;18.10;43.90;;;;;;5097251;28;20020;-56
2022/02/26 00:42:54;;;;;;;3.90;2.22;;;18.10;43.90;;;;;;5095178;28;20040;-55
2022/02/26 00:45:20;;;;;;;3.60;2.30;;;18.10;43.90;;;;;;5094213;28;20043;-55
2022/02/26 00:47:46;;;;;;;3.67;2.28;;;18.10;43.90;;;;;;5094666;28;20043;-57
2022/02/26 00:50:12;;;;;;;4.85;2.58;;;18.10;43.90;;;;;;5095498;28;20021;-55
2022/02/26 00:52:38;;;;;;;4.28;2.40;;;18.10;43.90;;;;;;5094439;28;20390;-55
2022/02/26 00:55:05;;;;;;;4.05;2.35;;;18.10;43.90;;;;;;5095298;28;20050;-56
2022/02/26 00:57:33;;;;;;;4.85;2.55;;;18.10;44.00;;;;;;5094861;28;20025;-54
2022/02/26 00:59:58;;;;;;;5.00;2.83;;;18.10;44.00;;;;;;5081008;28;20047;-56
2022/02/26 01:02:25;;;;;;;7.25;2.28;;;18.10;44.00;;;;;;5098829;28;20078;-56
2022/02/26 01:04:50;;;;;;;5.55;2.50;;;18.00;43.90;;;;;;5097511;28;20453;-55
2022/02/26 01:07:16;;;;;;;5.60;2.70;;;18.10;44.00;;;;;;5094494;28;20008;-54
2022/02/26 01:09:42;;;;;;;4.38;2.55;;;18.00;43.90;;;;;;5110270;28;20048;-55
2022/02/26 01:12:08;;;;;;;4.55;2.35;;;18.10;44.00;;;;;;5094776;28;20024;-55
2022/02/26 01:14:35;;;;;;;6.05;2.40;;;18.10;44.00;;;;;;5094666;28;20087;-54
2022/02/26 01:17:02;;;;;;;5.22;2.17;;;18.10;44.00;;;;;;5094582;28;20444;-55
2022/02/26 01:19:27;;;;;;;4.95;2.40;;;18.10;44.10;;;;;;5094210;28;20463;-54
2022/02/26 01:21:53;;;;;;;4.15;2.10;;;18.00;44.00;;;;;;5094118;28;20544;-54
2022/02/26 01:24:19;;;;;;;3.72;2.40;;;18.00;43.90;;;;;;5094475;28;20013;-55
2022/02/26 01:26:46;;;;;;;4.80;2.50;;;18.00;44.00;;;;;;5098193;28;20479;-56
2022/02/26 01:29:12;;;;;;;4.55;2.53;;;18.00;44.00;;;;;;5096245;28;20039;-56
2022/02/26 01:31:38;;;;;;;5.28;2.50;;;18.00;44.00;;;;;;5095489;28;20472;-57
2022/02/26 01:34:04;;;;;;;5.53;2.67;;;18.00;44.00;;;;;;5095568;28;20043;-54
2022/02/26 01:36:30;;;;;;;4.43;2.53;;;18.00;44.60;;;;;;5094132;28;20054;-55
2022/02/26 01:38:59;;;;;;;3.95;2.20;;;18.00;44.10;;;;;;5094792;28;20027;-55
2022/02/26 01:41:26;;;;;;;4.65;2.40;;;18.00;44.00;;;;;;5094532;28;20129;-54
2022/02/26 01:43:52;;;;;;;5.15;2.60;;;18.00;44.00;;;;;;5095294;28;20008;-57
2022/02/26 01:46:19;;;;;;;3.90;2.33;;;18.00;44.10;;;;;;5096288;28;20042;-56
2022/02/26 01:48:45;;;;;;;4.07;2.55;;;18.00;44.10;;;;;;5096322;28;20020;-56
2022/02/26 01:51:12;;;;;;;6.15;2.67;;;18.00;44.10;;;;;;5095621;28;20039;-56
2022/02/26 01:53:38;;;;;;;4.95;2.78;;;18.00;44.10;;;;;;5095335;28;20033;-56
2022/02/26 01:56:05;;;;;;;7.47;3.00;;;18.00;44.10;;;;;;5095138;28;20028;-57
2022/02/26 01:58:32;;;;;;;5.07;2.50;;;18.00;44.10;;;;;;5094387;28;20027;-57
2022/02/26 02:01:00;;;;;;;4.45;2.83;;;18.00;44.10;;;;;;5094259;28;20074;-57
2022/02/26 02:03:26;;;;;;;6.32;2.50;;;17.90;44.00;;;;;;5093803;28;20012;-58
2022/02/26 02:05:54;;;;;;;4.60;2.47;;;17.90;44.10;;;;;;5094101;28;20016;-58
2022/02/26 02:08:20;;;;;;;3.72;2.22;;;17.90;44.00;;;;;;5095144;28;20087;-57
2022/02/26 02:10:45;;;;;;;4.70;2.60;;;17.90;44.10;;;;;;5095020;28;20043;-56
2022/02/26 02:13:11;;;;;;;4.45;2.30;;;17.90;44.10;;;;;;5110446;28;20125;-58
2022/02/26 02:15:41;;;;;;;4.03;2.15;;;17.90;44.10;;;;;;5093864;28;20488;-56
2022/02/26 02:18:08;;;;;;;4.63;2.63;;;17.90;44.10;;;;;;5094585;28;20020;-55
2022/02/26 02:20:35;;;;;;;6.10;2.92;;;17.90;44.10;;;;;;5094853;28;20020;-54
2022/02/26 02:23:03;;;;;;;5.13;2.80;;;17.90;44.20;;;;;;5095115;28;20077;-55
2022/02/26 02:25:30;;;;;;;4.90;2.47;;;17.80;44.10;;;;;;5095801;28;20459;-55
2022/02/26 02:27:56;;;;;;;5.90;2.53;;;17.80;44.10;;;;;;5097044;28;20463;-57
2022/02/26 02:30:23;;;;;;;5.97;2.92;;;17.90;44.20;;;;;;5097685;28;20024;-55
2022/02/26 02:32:49;;;;;;;4.15;2.50;;;17.90;44.10;;;;;;5095810;28;20012;-54
2022/02/26 02:35:40;;;;;;;4.97;2.60;;;17.80;44.20;;;;;;5093750;28;20036;-56
2022/02/26 02:38:15;;;;;;;3.03;2.23;;;17.80;44.20;;;;;;5094934;28;20016;-58
2022/02/26 02:40:42;;;;;;;4.63;2.30;;;17.80;44.10;;;;;;5095152;28;20012;-55
2022/02/26 02:43:09;;;;;;;4.30;2.55;;;17.80;44.10;;;;;;5094089;28;20502;-56
2022/02/26 02:45:35;;;;;;;4.60;2.30;;;17.80;44.20;;;;;;5094274;28;20017;-54
2022/02/26 02:48:01;;;;;;;5.45;2.58;;;17.80;44.10;;;;;;5094156;28;20019;-56
2022/02/26 02:50:27;;;;;;;4.93;2.92;;;17.80;44.20;;;;;;5094305;28;20013;-52
2022/02/26 02:52:54;;;;;;;4.43;2.75;;;17.80;44.20;;;;;;5093846;28;20540;-56
2022/02/26 02:55:21;;;;;;;3.33;2.38;;;17.80;44.20;;;;;;5094374;28;20111;-54
2022/02/26 02:57:48;;;;;;;6.18;2.65;;;17.80;44.10;;;;;;5094170;28;20016;-55
2022/02/26 03:00:14;;;;;;;4.20;2.63;;;17.80;44.20;;;;;;5096699;28;20107;-56
2022/02/26 03:02:41;;;;;;;4.85;2.80;;;17.80;44.20;;;;;;5097451;28;20024;-57
2022/02/26 03:05:08;;;;;;;5.72;2.83;;;17.80;44.20;;;;;;5097339;28;20020;-54
2022/02/26 03:07:34;;;;;;;4.60;2.65;;;17.80;44.20;;;;;;5096046;28;20024;-56
2022/02/26 03:10:00;;;;;;;5.05;2.80;;;17.80;44.20;;;;;;5094381;28;20020;-56
2022/02/26 03:12:26;;;;;;;4.18;2.88;;;17.70;44.10;;;;;;5094714;28;20020;-54
2022/02/26 03:14:53;;;;;;;4.00;2.42;;;17.70;44.10;;;;;;5094331;28;20039;-56
2022/02/26 03:17:20;;;;;;;6.30;2.78;;;17.70;44.20;;;;;;5098019;28;20091;-54
2022/02/26 03:19:49;;;;;;;6.03;2.83;;;17.70;44.10;;;;;;5098159;28;20023;-54
2022/02/26 03:22:15;;;;;;;6.38;2.88;;;17.70;44.10;;;;;;5098723;28;20033;-56
2022/02/26 03:24:42;;;;;;;4.15;2.72;;;17.70;44.20;;;;;;5098167;28;20009;-57
2022/02/26 03:27:08;;;;;;;4.40;2.40;;;17.70;44.10;;;;;;5098311;28;20062;-56
2022/02/26 03:29:34;;;;;;;7.60;3.20;;;17.70;44.20;;;;;;5099271;28;20039;-56
2022/02/26 03:32:00;;;;;;;3.55;2.65;;;17.70;44.10;;;;;;5099481;28;20024;-56
2022/02/26 03:34:25;;;;;;;4.18;2.40;;;17.70;44.10;;;;;;5098091;28;20103;-56
2022/02/26 03:36:51;;;;;;;5.18;2.83;;;17.70;44.20;;;;;;5096073;28;20039;-56
2022/02/26 03:39:21;;;;;;;4.82;2.72;;;17.70;44.20;;;;;;5097127;28;20012;-57
2022/02/26 03:41:46;;;;;;;4.15;2.70;;;17.70;44.20;;;;;;5095469;28;20052;-55
2022/02/26 03:44:12;;;;;;;5.25;3.38;;;17.70;44.80;;;;;;5096420;28;20038;-54
2022/02/26 03:46:38;;;;;;;5.35;2.78;;;17.60;44.20;;;;;;5096788;28;20091;-54
2022/02/26 03:49:04;;;;;;;3.95;2.83;;;17.70;44.20;;;;;;5096468;28;20522;-54
2022/02/26 03:51:31;;;;;;;4.32;2.78;;;17.60;44.20;;;;;;5096761;28;20020;-55
2022/02/26 03:53:57;;;;;;;4.03;2.63;;;17.60;44.20;;;;;;5094975;28;20016;-57
2022/02/26 03:56:23;;;;;;;4.40;2.63;;;17.60;44.20;;;;;;5095160;28;20031;-56
2022/02/26 03:58:51;;;;;;;6.57;2.97;;;17.70;44.30;;;;;;5112087;28;20555;-55
2022/02/26 04:01:19;;;;;;;4.63;2.70;;;17.60;44.30;;;;;;5096696;28;20028;-54
2022/02/26 04:03:45;;;;;;;4.90;2.65;;;17.60;44.30;;;;;;5096899;28;20008;-55
2022/02/26 04:06:12;;;;;;;5.57;2.60;;;17.60;44.30;;;;;;5097163;28;20024;-56
2022/02/26 04:08:39;;;;;;;5.60;2.70;;;17.60;44.30;;;;;;5097969;28;20069;-57
2022/02/26 04:11:06;;;;;;;4.63;2.85;;;17.60;44.30;;;;;;5097418;28;20019;-57
2022/02/26 04:13:32;;;;;;;3.38;2.42;;;17.60;44.30;;;;;;5096726;28;20027;-55
2022/02/26 04:15:58;;;;;;;4.25;2.72;;;17.60;44.30;;;;;;5096069;28;20019;-55
2022/02/26 04:18:24;;;;;;;4.60;2.78;;;17.60;44.20;;;;;;5096111;28;20040;-56
2022/02/26 04:20:50;;;;;;;4.85;2.53;;;17.60;44.30;;;;;;5095896;28;20028;-55
2022/02/26 04:23:16;;;;;;;5.18;2.70;;;17.60;44.30;;;;;;5096328;28;20016;-55
2022/02/26 04:25:43;;;;;;;4.32;2.78;;;17.60;44.30;;;;;;5095581;28;20024;-55
2022/02/26 04:28:09;;;;;;;10.13;3.00;;;17.60;44.30;;;;;;5094586;28;20061;-54
2022/02/26 04:30:37;;;;;;;4.75;2.92;;;17.60;44.30;;;;;;5096859;28;20166;-54
2022/02/26 04:33:03;;;;;;;4.88;2.78;;;17.60;44.30;;;;;;5094933;28;20024;-57
2022/02/26 04:35:30;;;;;;;6.28;2.80;;;17.50;44.30;;;;;;5095993;28;20020;-55
2022/02/26 04:37:56;;;;;;;4.85;2.67;;;17.50;44.30;;;;;;5095709;28;20016;-54
2022/02/26 04:40:21;;;;;;;4.85;3.08;;;17.50;44.30;;;;;;5094354;28;20489;-53
2022/02/26 04:42:47;;;;;;;6.22;2.30;;;17.50;44.40;;;;;;5095300;28;20048;-57
2022/02/26 04:45:13;;;;;;;4.30;2.60;;;17.50;44.40;;;;;;5095213;28;20370;-54
2022/02/26 04:47:40;;;;;;;4.57;2.95;;;17.50;44.30;;;;;;5095367;28;20020;-55
2022/02/26 04:50:06;;;;;;;6.10;3.05;;;17.50;44.40;;;;;;5095690;28;20036;-56
2022/02/26 04:52:33;;;;;;;3.97;2.80;;;17.50;44.40;;;;;;5095731;28;20105;-55
2022/02/26 04:54:59;;;;;;;5.03;2.97;;;17.50;44.40;;;;;;5095589;28;20023;-55
2022/02/26 04:57:25;;;;;;;4.05;2.53;;;17.50;44.40;;;;;;5094596;28;20028;-54
2022/02/26 04:59:51;;;;;;;6.40;3.20;;;17.50;44.30;;;;;;5094863;28;20383;-54
2022/02/26 05:02:17;;;;;;;4.88;2.90;;;17.50;44.40;;;;;;5096372;28;20032;-56
2022/02/26 05:04:45;;;;;;;5.82;2.65;;;17.50;44.40;;;;;;5094676;28;20467;-54
2022/02/26 05:07:12;;;;;;;7.07;2.97;;;17.50;44.40;;;;;;5096032;28;20020;-55
2022/02/26 05:09:38;;;;;;;4.43;2.78;;;17.50;44.50;;;;;;5095561;28;20020;-56
2022/02/26 05:12:06;;;;;;;7.05;3.00;;;17.50;44.40;;;;;;5095657;28;20016;-56
2022/02/26 05:14:33;;;;;;;5.00;2.78;;;17.40;44.40;;;;;;5094574;28;20016;-55
2022/02/26 05:17:00;;;;;;;6.07;2.90;;;17.40;44.40;;;;;;5094875;28;20016;-56
2022/02/26 05:19:27;;;;;;;4.63;2.83;;;17.40;44.40;;;;;;5096131;28;20020;-54
2022/02/26 05:21:53;;;;;;;5.32;2.50;;;17.40;44.40;;;;;;5095035;28;20028;-56
2022/02/26 05:24:20;;;;;;;4.80;2.65;;;17.40;44.40;;;;;;5111203;28;20076;-57
2022/02/26 05:26:46;;;;;;;5.88;3.05;;;17.40;44.40;;;;;;5095064;28;20077;-57
2022/02/26 05:29:12;;;;;;;7.97;3.05;;;17.50;44.50;;;;;;5094659;28;20012;-57
2022/02/26 05:31:39;;;;;;;5.05;3.08;;;17.40;44.40;;;;;;5094668;28;20059;-56
2022/02/26 05:34:05;;;;;;;4.20;2.70;;;17.40;44.40;;;;;;5094313;28;20032;-56
2022/02/26 05:36:31;;;;;;;5.93;3.03;;;17.40;44.40;;;;;;5094963;28;20061;-56
2022/02/26 05:38:57;;;;;;;5.43;2.80;;;17.40;44.40;;;;;;5093204;28;20024;-56
2022/02/26 05:41:25;;;;;;;4.53;2.95;;;17.40;44.50;;;;;;5093103;28;20513;-54
2022/02/26 05:43:51;;;;;;;5.00;2.80;;;17.40;44.40;;;;;;5094566;28;20016;-55
2022/02/26 05:46:18;;;;;;;5.55;2.58;;;17.40;44.40;;;;;;5095603;28;20008;-56
2022/02/26 05:48:44;;;;;;;6.32;2.75;;;17.40;44.40;;;;;;5111116;28;20043;-55
2022/02/26 05:51:10;;;;;;;5.22;2.90;;;17.40;44.50;;;;;;5094763;28;20012;-57
2022/02/26 05:53:37;;;;;;;4.38;2.65;;;17.40;44.40;;;;;;5093696;28;20588;-56
2022/02/26 05:56:03;;;;;;;4.32;2.70;;;17.40;44.40;;;;;;5094197;28;20032;-54
2022/02/26 05:58:29;;;;;;;5.63;3.15;;;17.40;44.50;;;;;;5095012;28;20012;-55
2022/02/26 06:00:55;;;;;;;3.78;2.78;;;17.40;44.40;;;;;;5094761;28;20525;-55
2022/02/26 06:03:21;;;;;;;5.90;3.53;;;17.40;44.50;;;;;;5094122;28;20490;-55
2022/02/26 06:05:47;;;;;;;4.18;2.63;;;17.30;44.40;;;;;;5093959;28;20017;-55
2022/02/26 06:08:14;;;;;;;3.88;2.70;;;17.30;44.40;;;;;;5094301;28;20040;-55
2022/02/26 06:10:40;;;;;;;4.55;2.80;;;17.30;44.40;;;;;;5093894;28;20051;-54
2022/02/26 06:13:06;;;;;;;5.18;3.30;;;17.30;44.40;;;;;;5094029;28;20087;-55
2022/02/26 06:15:32;;;;;;;3.67;2.53;;;17.30;44.40;;;;;;5093473;28;20059;-55
2022/02/26 06:17:58;;;;;;;5.05;2.70;;;17.30;44.40;;;;;;5093727;28;20028;-55
2022/02/26 06:20:25;;;;;;;4.75;2.75;;;17.30;44.40;;;;;;5093366;28;20027;-54
2022/02/26 06:22:50;;;;;;;5.60;2.80;;;17.30;44.40;;;;;;5094098;28;20066;-54
2022/02/26 06:25:18;;;;;;;3.97;2.67;;;17.30;44.40;;;;;;5092875;28;20087;-56
2022/02/26 06:27:44;;;;;;;3.97;2.60;;;17.30;44.40;;;;;;5092613;28;20479;-56
2022/02/26 06:30:11;;;;;;;4.82;3.08;;;17.30;44.50;;;;;;5093535;28;20013;-57
2022/02/26 06:32:37;;;;;;;5.22;3.05;;;17.30;44.40;;;;;;5093598;28;20031;-55
2022/02/26 06:35:04;;;;;;;6.13;2.40;;;17.30;44.40;;;;;;5092415;28;20012;-56
2022/02/26 06:37:29;;;;;;;3.85;2.50;;;17.30;44.50;;;;;;5093138;28;20047;-55
2022/02/26 06:39:56;;;;;;;5.50;2.72;;;17.30;44.40;;;;;;5093289;28;20043;-55
2022/02/26 06:42:22;;;;;;;4.00;2.55;;;17.30;44.40;;;;;;5091873;28;20119;-56
2022/02/26 06:44:47;;;;;;;4.25;2.65;;;17.20;44.40;;;;;;5093381;28;20054;-55
2022/02/26 06:47:14;;;;;;;5.15;2.97;;;17.30;44.50;;;;;;5093281;28;20119;-53
2022/02/26 06:49:40;;;;;;;4.95;2.53;;;17.20;44.40;;;;;;5094022;28;20475;-54
2022/02/26 06:52:06;;;;;;;4.13;2.70;;;17.20;44.40;;;;;;5100018;28;20012;-55
2022/02/26 06:54:33;;;;;;;4.90;2.80;;;17.20;44.40;;;;;;5100358;28;20008;-52
2022/02/26 06:56:59;;;;;;;3.72;2.47;;;17.20;44.40;;;;;;5100214;28;20031;-52
2022/02/26 06:59:26;;;;;;;4.93;3.00;;;17.20;44.40;;;;;;5100995;28;20032;-54
2022/02/26 07:01:52;;;;;;;4.28;2.75;;;17.20;44.40;;;;;;5102466;28;20027;-56
2022/02/26 07:04:18;;;;;;;5.60;3.20;;;17.20;44.40;;;;;;5102197;28;20013;-52
2022/02/26 07:06:44;;;;;;;4.60;3.00;;;17.20;44.40;;;;;;5101793;28;20485;-54
2022/02/26 07:09:17;;;;;;;5.00;3.20;;;17.20;44.40;;;;;;5104256;28;20046;-52
2022/02/26 07:11:44;;;;;;;3.83;2.50;;;17.20;44.40;;;;;;5102918;28;20592;-50
2022/02/26 07:14:10;;;;;;;6.45;2.67;;;17.20;44.40;;;;;;5103231;28;20045;-55
2022/02/26 07:16:36;;;;;;;4.50;3.05;;;17.20;44.40;;;;;;5102387;28;20475;-55
2022/02/26 07:19:03;;;;;;;5.80;3.22;;;17.20;44.30;;;;;;5101428;28;20359;-52
2022/02/26 07:21:28;;;;;;;4.20;2.70;;;17.20;44.40;;;;;;5100885;28;20501;-53
2022/02/26 07:23:56;;;;;;;3.38;2.60;;;17.20;44.40;;;;;;5100187;28;20483;-52
2022/02/26 07:26:22;;;;;;;4.88;2.90;;;17.20;44.30;;;;;;5100578;28;20020;-53
2022/02/26 07:28:48;;;;;;;3.70;2.72;;;17.20;44.30;;;;;;5101433;28;20008;-55
2022/02/26 07:31:15;;;;;;;4.05;2.35;;;17.20;44.90;;;;;;5102144;28;20028;-50
2022/02/26 07:33:41;;;;;;;4.43;2.67;;;17.20;44.40;;;;;;5100465;28;20012;-54
2022/02/26 07:36:07;;;;;;;5.28;3.08;;;17.20;44.40;;;;;;5117087;28;20013;-56
2022/02/26 07:38:33;;;;;;;4.45;2.50;;;17.20;44.30;;;;;;5100828;28;20015;-54
2022/02/26 07:41:00;;;;;;;4.03;2.55;;;17.20;44.30;;;;;;5100156;28;20008;-53
2022/02/26 07:43:27;;;;;;;4.50;3.10;;;17.20;44.30;;;;;;5100716;28;20114;-52
2022/02/26 07:45:56;;;;;;;4.38;3.15;;;17.20;44.30;;;;;;5099760;28;20035;-52
2022/02/26 07:48:23;;;;;;;6.53;3.00;;;17.20;44.30;;;;;;5099511;28;20459;-53
2022/02/26 07:50:49;;;;;;;5.28;2.97;;;17.20;44.30;;;;;;5099835;28;20087;-53
2022/02/26 07:53:16;;;;;;;5.80;2.53;;;17.20;44.30;;;;;;5101669;28;20026;-54
2022/02/26 07:55:43;;;;;;;3.58;2.40;;;17.20;44.30;;;;;;5104916;28;20020;-55
2022/02/26 07:58:09;;;;;;;4.85;2.90;;;17.20;44.30;;;;;;5104333;28;20109;-54
2022/02/26 08:00:36;;;;;;;5.05;3.00;;;17.20;44.30;;;;;;5104168;28;20019;-54
2022/02/26 08:03:02;;;;;;;4.75;2.65;;;17.20;44.30;;;;;;5098033;28;20028;-55
2022/02/26 08:05:28;;;;;;;8.05;3.00;;;17.20;44.30;;;;;;5096780;28;20394;-52
2022/02/26 08:07:55;;;;;;;4.60;2.75;;;17.10;44.30;;;;;;5096540;28;20091;-53
2022/02/26 08:10:22;;;;;;;3.85;2.85;;;17.20;44.30;;;;;;5096148;28;20016;-54
2022/02/26 08:12:49;;;;;;;5.25;3.08;;;17.20;44.30;;;;;;5112169;28;20039;-52
2022/02/26 08:15:16;;;;;;;4.82;3.05;;;17.20;44.30;;;;;;5096382;28;20092;-55
2022/02/26 08:17:44;;;;;;;5.03;2.78;;;17.20;44.30;;;;;;5096750;28;20031;-64
2022/02/26 08:20:10;;;;;;;5.60;2.90;;;17.20;44.30;;;;;;5098378;28;20535;-52
2022/02/26 08:22:35;;;;;;;3.97;2.60;;;17.20;44.30;;;;;;5098878;28;20479;-53
2022/02/26 08:25:03;;;;;;;4.18;2.67;;;17.20;44.30;;;;;;5098938;28;20020;-56
2022/02/26 08:27:30;;;;;;;5.03;2.90;;;17.20;44.30;;;;;;5097492;28;20039;-54
2022/02/26 08:29:57;;;;;;;4.40;2.60;;;17.20;44.30;;;;;;5097725;28;20069;-52
2022/02/26 08:32:23;;;;;;;7.32;2.95;;;17.20;44.20;;;;;;5112796;28;20431;-55
2022/02/26 08:34:49;;;;;;;3.88;2.63;;;17.20;44.20;;;;;;5113217;28;20024;-56
2022/02/26 08:37:15;;;;;;;7.07;2.78;;;17.20;44.30;;;;;;5098063;28;20024;-57
2022/02/26 08:39:42;;;;;;;3.70;2.53;;;17.20;44.20;;;;;;5097714;28;20382;-52
2022/02/26 08:42:08;;;;;;;5.28;3.25;;;17.20;44.30;;;;;;5095404;28;20119;-54
2022/02/26 08:44:34;;;;;;;4.18;3.05;;;17.20;44.30;;;;;;5096431;28;20379;-55
2022/02/26 08:47:00;;;;;;;4.22;2.70;;;17.10;44.20;;;;;;5096571;28;20721;-58
2022/02/26 08:49:27;;;;;;;3.72;2.63;;;17.10;44.20;;;;;;5097333;28;20016;-57
2022/02/26 08:51:53;;;;;;;4.57;2.92;;;17.20;44.30;;;;;;5095924;28;20030;-58
2022/02/26 08:54:19;;;;;;;4.57;2.63;;;17.20;44.20;;;;;;5098078;28;20452;-57
2022/02/26 08:56:45;;;;;;;5.18;2.95;;;17.20;44.30;;;;;;5098384;28;20063;-59
2022/02/26 08:59:12;;;;;;;4.60;2.65;;;17.20;44.20;;;;;;5098658;28;20391;-57
2022/02/26 09:01:38;;;;;;;4.30;3.00;;;17.20;44.20;;;;;;5098000;28;20027;-53
2022/02/26 09:04:04;;;;;;;6.18;2.65;;;17.10;44.10;;;;;;5098023;28;20024;-56
2022/02/26 09:06:32;;;;;;;4.53;2.95;;;17.20;44.20;;;;;;5097176;28;20037;-57
2022/02/26 09:08:59;;;;;;;4.18;2.60;;;17.10;44.20;;;;;;5097038;28;20020;-51
2022/02/26 09:11:25;;;;;;;4.50;2.92;;;17.20;44.20;;;;;;5096209;28;20028;-52
2022/02/26 09:13:52;;;;;;;5.57;2.97;;;17.20;44.20;;;;;;5095863;28;20012;-51
2022/02/26 09:16:18;;;;;;;4.85;2.83;;;17.20;44.20;;;;;;5095473;28;20104;-52
2022/02/26 09:18:45;;;;;;;3.80;2.75;;;17.20;44.20;;;;;;5094935;28;20532;-54
2022/02/26 09:21:13;;;;;;;3.83;2.67;;;17.20;44.20;;;;;;5095232;28;20062;-54
2022/02/26 09:23:39;;;;;;;3.50;2.38;;;17.20;44.10;;;;;;5094860;28;20016;-54
2022/02/26 09:26:05;;;;;;;4.68;2.95;;;17.20;44.10;;;;;;5094837;28;20470;-53
2022/02/26 09:28:35;;;;;;;3.65;2.60;;;17.20;44.10;;;;;;5094620;28;20020;-55
2022/02/26 09:31:01;;;;;;;5.53;3.13;;;17.20;44.10;;;;;;5094513;28;20008;-57
2022/02/26 09:33:29;;;;;;;4.68;2.83;;;17.20;44.10;;;;;;5094178;28;20013;-57
2022/02/26 09:35:55;;;;;;;5.22;2.80;;;17.20;44.10;;;;;;5094598;28;20036;-55
2022/02/26 09:38:22;;;;;;;6.25;2.83;;;17.20;44.10;;;;;;5093069;28;20012;-55
2022/02/26 09:40:48;;;;;;;3.95;2.38;;;17.10;44.10;;;;;;5093048;28;20042;-53
2022/02/26 09:43:15;;;;;;;4.22;2.85;;;17.20;44.10;;;;;;5093975;28;20040;-55
2022/02/26 09:45:41;;;;;;;3.65;2.72;;;17.20;44.10;;;;;;5092986;28;20027;-55
2022/02/26 09:48:07;;;;;;;4.13;2.63;;;17.20;44.10;;;;;;5094155;28;20039;-54
2022/02/26 09:50:33;;;;;;;4.13;2.72;;;17.20;44.10;;;;;;5094273;28;20462;-54
2022/02/26 09:52:59;;;;;;;4.43;3.05;;;17.20;44.10;;;;;;5094059;28;20478;-54
2022/02/26 09:55:25;;;;;;;5.00;2.70;;;17.20;44.10;;;;;;5094025;28;20027;-57
2022/02/26 09:57:51;;;;;;;7.22;2.60;;;17.20;44.10;;;;;;5093912;28;20023;-57
2022/02/26 10:00:17;;;;;;;3.83;2.40;;;17.20;44.10;;;;;;5094426;28;20024;-55
2022/02/26 10:02:47;;;;;;;5.05;2.55;;;17.20;44.10;;;;;;5094278;28;20111;-57
2022/02/26 10:05:14;;;;;;;4.00;2.40;;;17.20;44.10;;;;;;5094119;28;20008;-54
2022/02/26 10:07:41;;;;;;;5.63;2.83;;;17.20;44.10;;;;;;5092342;28;20012;-56
2022/02/26 10:10:28;;;;;;;4.35;2.83;;;17.20;44.10;;;;;;5092639;28;20085;-54
2022/02/26 10:12:56;;;;;;;3.67;2.67;;;17.20;44.10;;;;;;5093959;28;20028;-53
2022/02/26 10:15:27;;;;;;;3.70;2.50;;;17.20;44.10;;;;;;5092256;28;20074;-53
2022/02/26 10:18:11;;;;;;;4.57;2.35;;;17.20;44.10;;;;;;5093590;28;20015;-50
2022/02/26 10:21:04;;;;;;;4.30;2.55;;;17.20;44.20;;;;;;5093718;28;20466;-55
2022/02/26 10:23:30;;;;;;;4.45;2.60;;;17.20;44.20;;;;;;5091978;28;20571;-53
2022/02/26 10:26:06;;;;;;;4.93;2.90;;;17.20;44.10;;;;;;5094438;28;20017;-53
2022/02/26 10:28:33;;;;;;;4.40;2.60;;;17.20;44.10;;;;;;5096411;28;20095;-56
2022/02/26 10:31:01;;;;;;;4.38;2.78;;;17.20;44.10;;;;;;5096144;28;20080;-57
2022/02/26 10:33:28;;;;;;;4.22;2.67;;;17.20;44.10;;;;;;5096254;28;20034;-57
2022/02/26 10:35:59;;;;;;;4.78;2.80;;;17.20;44.10;;;;;;5096205;28;20020;-55
2022/02/26 10:38:28;;;;;;;4.28;3.00;;;17.20;44.10;;;;;;5098134;28;20101;-55
2022/02/26 10:41:10;;;;;;;4.65;2.72;;;17.20;44.10;;;;;;5096927;28;20024;-54
2022/02/26 10:43:44;;;;;;;3.95;2.22;;;17.20;44.10;;;;;;5097152;28;20020;-55
2022/02/26 10:46:22;;;;;;;3.15;2.20;;;17.20;44.20;;;;;;5097026;28;20060;-53
2022/02/26 10:48:50;;;;;;;4.25;2.47;;;17.20;44.10;;;;;;5096182;28;20012;-55
2022/02/26 10:51:17;;;;;;;5.03;2.47;;;17.20;44.10;;;;;;5095460;28;20008;-56
2022/02/26 10:53:44;;;;;;;4.40;2.50;;;17.20;44.10;;;;;;5096269;28;20044;-55
2022/02/26 10:56:12;;;;;;;4.38;3.00;;;17.20;44.10;;;;;;5096067;28;20471;-55
2022/02/26 10:58:37;;;;;;;4.28;2.63;;;17.20;44.10;;;;;;5096913;28;20020;-53
2022/02/26 11:01:09;;;;;;;3.13;2.33;;;17.20;44.10;;;;;;5096019;28;20012;-54
2022/02/26 11:03:35;;;;;;;5.32;2.97;;;17.20;44.10;;;;;;5096336;28;20060;-53
2022/02/26 11:06:01;;;;;;;4.10;2.50;;;17.20;44.10;;;;;;5096823;28;20017;-53
2022/02/26 11:08:26;;;;;;;4.05;2.20;;;17.20;44.10;;;;;;5096487;28;20515;-55
2022/02/26 11:10:53;;;;;;;4.53;2.55;;;17.20;44.10;;;;;;5097360;28;20028;-53
2022/02/26 11:13:22;;;;;;;4.25;2.50;;;17.20;44.10;;;;;;5098567;28;20081;-55
2022/02/26 11:15:48;;;;;;;4.03;2.55;;;17.20;44.10;;;;;;5093785;28;20025;-53
2022/02/26 11:18:16;;;;;;;5.07;2.80;;;17.20;44.10;;;;;;5094395;28;20063;-55
2022/02/26 11:20:42;;;;;;;5.90;2.60;;;17.20;44.10;;;;;;5092989;28;20012;-52
2022/02/26 11:23:08;;;;;;;5.65;2.67;;;17.20;44.10;;;;;;5094830;28;20062;-54
2022/02/26 11:25:35;;;;;;;3.50;2.45;;;17.20;44.10;;;;;;5097635;28;20020;-56
2022/02/26 11:28:01;;;;;;;4.20;2.38;;;17.20;44.20;;;;;;5096474;28;20019;-55
2022/02/26 11:30:32;;;;;;;5.10;2.78;;;17.20;44.10;;;;;;5096319;28;20070;-52
2022/02/26 11:32:58;;;;;;;;;;;17.20;44.10;;;;;;5095923;28;20024;-52
2022/02/26 11:35:26;;;;;;;3.65;2.58;;;17.20;44.10;;;;;;5093409;28;19904;-53
2022/02/26 11:37:56;;;;;;;3.72;2.10;;;17.20;44.10;;;;;;5098042;28;20463;-52
2022/02/26 11:40:22;;;;;;;3.40;2.47;;;17.20;44.20;;;;;;5098054;28;20027;-53
2022/02/26 11:42:48;;;;;;;3.65;2.30;;;17.20;44.10;;;;;;5099401;28;20040;-55
2022/02/26 11:45:48;;;;;;;4.30;2.38;;;17.10;44.70;;;;;;5083731;28;20024;-53
2022/02/26 11:48:14;;;;;;;3.70;2.17;;;17.10;44.10;;;;;;5100950;28;20085;-53
2022/02/26 11:50:41;;;;;;;3.60;2.22;;;17.10;44.10;;;;;;5096795;28;20012;-53
2022/02/26 11:53:17;;;;;;;2.67;2.15;;;17.20;44.20;;;;;;5095744;28;20051;-52
2022/02/26 11:55:57;;;;;;;4.28;2.70;;;17.20;44.20;;;;;;5096569;28;20012;-52
2022/02/26 11:58:28;;;;;;;3.85;2.30;;;17.20;44.20;;;;;;5096764;28;20063;-52
2022/02/26 12:00:58;;;;;;;3.70;2.30;;;17.20;44.20;;;;;;5096211;28;20048;-57
2022/02/26 12:03:27;;;;;;;3.85;2.50;;;17.20;44.20;;;;;;5096281;28;20028;-54
2022/02/26 12:06:16;;;;;;;5.05;2.10;;;17.20;44.20;;;;;;5096483;28;20039;-52
2022/02/26 12:08:44;;;;;;;3.72;2.35;;;17.10;44.10;;;;;;5085998;28;20031;-52
2022/02/26 12:11:11;;;;;;;5.93;2.45;;;17.20;44.20;;;;;;5095938;28;20016;-54
2022/02/26 12:13:41;;;;;;;3.90;2.40;;;17.20;44.20;;;;;;5096113;28;20008;-54
2022/02/26 12:16:25;;;;;;;3.83;2.53;;;17.10;44.10;;;;;;5096323;28;20057;-54
2022/02/26 12:19:21;;;;;;;4.68;2.20;;;17.10;44.20;;;;;;5096136;28;20523;-55
2022/02/26 12:21:48;;;;;;;4.45;2.47;;;17.20;44.20;;;;;;5094944;28;20027;-56
2022/02/26 12:24:15;;;;;;;4.45;2.28;;;17.20;44.20;;;;;;5096523;28;20023;-53
2022/02/26 12:26:41;;;;;;;3.65;2.50;;;17.10;44.20;;;;;;5096478;28;20024;-55
2022/02/26 12:29:09;;;;;;;3.20;2.50;;;17.20;44.20;;;;;;5098123;28;20017;-54
2022/02/26 12:31:41;;;;;;;5.13;2.97;;;17.20;44.30;;;;;;5098337;28;20020;-54
2022/02/26 12:34:11;;;;;;;4.03;2.35;;;17.10;44.20;;;;;;5097895;28;20055;-55
2022/02/26 12:37:07;;;;;;;2.28;2.03;;;17.20;44.20;;;;;;5096550;28;20459;-53
2022/02/26 12:39:38;;;;;;;3.60;2.22;;;17.20;44.20;;;;;;5095896;28;20027;-50
2022/02/26 12:42:04;;;;;;;3.75;2.20;;;17.20;44.20;;;;;;5095432;28;20491;-53
2022/02/26 12:44:30;;;;;;;4.60;2.15;;;17.10;44.20;;;;;;5094977;28;20017;-54
2022/02/26 12:46:57;;;;;;;3.63;2.10;;;17.10;44.20;;;;;;5094778;28;20008;-55
2022/02/26 12:49:23;;;;;;;2.95;2.05;;;17.20;44.30;;;;;;5076504;28;20016;-53